WetterOnline ( https://www.wetteronline.ch )

Wetter aktuell Ratzeburg

Aktuelles Wetter: Lübeck/Blankensee (15m)

6-stündlich | Neueste Meldungen
Ortszeit Temperatur Wetter
Mi, 23.09. 8:00 7.9° C leicht bewölkt
Mi, 23.09. 2:00 9.0° C Nebel
Di, 22.09. 20:00 15.6° C wolkenlos
Di, 22.09. 14:00 24.2° C wolkenlos
Di, 22.09. 8:00 6.9° C wolkenlos
Di, 22.09. 2:00 8.2° C Nebel
Mo, 21.09. 20:00 15.0° C wolkenlos
Mo, 21.09. 14:00 21.9° C wolkenlos
Ortszeit Temperatur Wetter
Mi, 23.09. 13:50 23° C -
Mi, 23.09. 13:30 22.4° C bedeckt
Mi, 23.09. 13:20 22.4° C bedeckt
Mi, 23.09. 13:10 21.5° C bedeckt
Mi, 23.09. 13:00 22.7° C bedeckt
Mi, 23.09. 12:50 22.7° C bedeckt
Mi, 23.09. 12:30 21.8° C bedeckt
Mi, 23.09. 12:00 20.8° C wolkig
Mi, 23.09. 11:30 20.1° C wolkenlos
Mi, 23.09. 11:00 19.1° C wolkenlos
Mi, 23.09. 10:30 17.2° C wolkenlos
Ortszeit Relative Feuchte Sichtweite
Mi, 23.09. 8:00 100% 7 km
Mi, 23.09. 2:00 99% 0.7 km
Di, 22.09. 20:00 79% 35 km
Di, 22.09. 14:00 43% 45 km
Di, 22.09. 8:00 98% 25 km
Di, 22.09. 2:00 100% 0.2 km
Mo, 21.09. 20:00 76% 25 km
Mo, 21.09. 14:00 40% 45 km
Ortszeit Relative Feuchte Sichtweite
Mi, 23.09. 13:50 44% >10 km
Mi, 23.09. 13:30 46% 24 km
Mi, 23.09. 13:20 46% -
Mi, 23.09. 13:10 47% -
Mi, 23.09. 13:00 43% 27 km
Mi, 23.09. 12:50 43% -
Mi, 23.09. 12:30 46% 25 km
Mi, 23.09. 12:00 50% 28 km
Mi, 23.09. 11:30 54% 27 km
Mi, 23.09. 11:00 59% 30 km
Mi, 23.09. 10:30 67% 26 km
Ortszeit Niederschlagsmenge Niederschlagsart
Mi, 23.09. 8:00 0.0 l/m2 in 12 Std. -
Mi, 23.09. 2:00 0.0 l/m2 in 6 Std. -
Di, 22.09. 20:00 0.0 l/m2 in 12 Std. -
Di, 22.09. 14:00 0.0 l/m2 in 6 Std. -
Di, 22.09. 8:00 0.0 l/m2 in 12 Std. -
Di, 22.09. 2:00 0.0 l/m2 in 6 Std. -
Mo, 21.09. 20:00 0.0 l/m2 in 12 Std. -
Mo, 21.09. 14:00 0.0 l/m2 in 6 Std. -
Ortszeit Niederschlagsmenge Niederschlagsart
Mi, 23.09. 13:50 keine Meldung -
Mi, 23.09. 13:30 0.0 l/m2 in 1 Std. -
Mi, 23.09. 13:20 keine Meldung -
Mi, 23.09. 13:10 keine Meldung -
Mi, 23.09. 13:00 0.0 l/m2 in 1 Std. -
Mi, 23.09. 12:50 keine Meldung -
Mi, 23.09. 12:30 0.0 l/m2 in 1 Std. -
Mi, 23.09. 12:00 0.0 l/m2 in 1 Std. -
Mi, 23.09. 11:30 0.0 l/m2 in 1 Std. -
Mi, 23.09. 11:00 0.0 l/m2 in 1 Std. -
Mi, 23.09. 10:30 0.0 l/m2 in 1 Std. -
Ortszeit Stärke Spitze Richtung
km/h Bft. km/h Grad Sektor
Mi, 23.09. 8:00 2 1 6 100° O
Mi, 23.09. 2:00 4 1 7 140° SO
Di, 22.09. 20:00 2 1 20 150° SO
Di, 22.09. 14:00 4 1 22 200° S
Di, 22.09. 8:00 2 1 4 230° SW
Di, 22.09. 2:00 4 1 7 150° SO
Mo, 21.09. 20:00 4 1 18 70° O
Mo, 21.09. 14:00 7 2 18 110° O
Ortszeit Stärke Spitze Richtung
km/h Bft. km/h Grad Sektor
Mi, 23.09. 13:50 17 3 - 200° S
Mi, 23.09. 13:30 11 2 22 250° W
Mi, 23.09. 13:20 11 2 - 250° W
Mi, 23.09. 13:10 11 2 - 260° W
Mi, 23.09. 13:00 14 3 22 250° W
Mi, 23.09. 12:50 14 3 - 250° W
Mi, 23.09. 12:30 9 2 19 250° W
Mi, 23.09. 12:00 7 2 15 220° SW
Mi, 23.09. 11:30 7 2 14 210° SW
Mi, 23.09. 11:00 4 1 11 200° S
Mi, 23.09. 10:30 4 1 11 210° SW
Ortszeit Untergrenze Bedeckung Gattung
total tief tief mittel hoch
Mi, 23.09. 8:00 8400 m 4/8 0/8 - - -
Mi, 23.09. 2:00 - 0/8 0/8 - - -
Di, 22.09. 20:00 - 0/8 0/8 - - -
Di, 22.09. 14:00 - 0/8 0/8 - - -
Di, 22.09. 8:00 - 0/8 0/8 - - -
Di, 22.09. 2:00 - 0/8 0/8 - - -
Mo, 21.09. 20:00 - 0/8 0/8 - - -
Mo, 21.09. 14:00 - 0/8 0/8 - - -
Ortszeit Bedeckungsgrad in Achtel und Wolkenuntergrenze
Mi, 23.09. 13:50 keine Wolken(unter 1500 m)
Mi, 23.09. 13:30 8(3900m)
Mi, 23.09. 13:20 8(3900m)
Mi, 23.09. 13:10 8(3900m)
Mi, 23.09. 13:00 8(3900m) 8(4500m)
Mi, 23.09. 12:50 8(3900m) 8(4500m)
Mi, 23.09. 12:30 7(3900m) 8(4500m)
Mi, 23.09. 12:00 7(4500m)
Mi, 23.09. 11:30 2(4500m)
Mi, 23.09. 11:00 keine Wolken
Mi, 23.09. 10:30 keine Wolken
Ortszeit Luftdruck NN (hPa) Tendenz (hPa in 3 Std.)
Mi, 23.09. 8:00 1005 - 0,1
Mi, 23.09. 2:00 1006 - 1,0
Di, 22.09. 20:00 1007 - 1,1
Di, 22.09. 14:00 1010 - 1,6
Di, 22.09. 8:00 1012 - 0,7
Di, 22.09. 2:00 1014 - 1,1
Mo, 21.09. 20:00 1016 - 0,9
Mo, 21.09. 14:00 1018 - 1,1
Ortszeit Luftdruck NN (hPa) Tendenz (hPa in 3 Std.)
Mi, 23.09. 13:50 1004 keine Meldung
Mi, 23.09. 13:30 1004 - 0,4
Mi, 23.09. 13:20 1004 keine Meldung
Mi, 23.09. 13:10 1004 keine Meldung
Mi, 23.09. 13:00 1005 - 0,3
Mi, 23.09. 12:50 1005 keine Meldung
Mi, 23.09. 12:30 1005 - 0,2
Mi, 23.09. 12:00 1005 0,0
Mi, 23.09. 11:30 1005 0,0
Mi, 23.09. 11:00 1005 + 0,1
Mi, 23.09. 10:30 1005 + 0,2
Ortszeit Schneehöhe (cm)
Mi, 23.09. 8:00 -
Mi, 23.09. 2:00 -
Di, 22.09. 20:00 -
Di, 22.09. 14:00 -
Di, 22.09. 8:00 -
Di, 22.09. 2:00 -
Mo, 21.09. 20:00 -
Mo, 21.09. 14:00 -
Ortszeit Schneehöhe (cm)
Mi, 23.09. 13:50 -
Mi, 23.09. 13:30 -
Mi, 23.09. 13:20 -
Mi, 23.09. 13:10 -
Mi, 23.09. 13:00 -
Mi, 23.09. 12:50 -
Mi, 23.09. 12:30 -
Mi, 23.09. 12:00 -
Mi, 23.09. 11:30 -
Mi, 23.09. 11:00 -
Mi, 23.09. 10:30 -
Link zu dieser Seite / Seite empfehlen

Das Wetter in ...